createdAt,value
2018-09-22T00:01:53.043Z,12.30
2018-09-22T00:04:21.229Z,12.30
2018-09-22T00:06:49.450Z,12.20
2018-09-22T00:09:17.614Z,12.20
2018-09-22T00:11:45.807Z,12.20
2018-09-22T00:14:14.014Z,12.20
2018-09-22T00:16:42.246Z,12.10
2018-09-22T00:19:10.465Z,12.10
2018-09-22T00:21:38.717Z,12.10
2018-09-22T00:24:06.910Z,12.10
2018-09-22T00:26:35.077Z,12.00
2018-09-22T00:29:03.263Z,11.90
2018-09-22T00:31:31.440Z,11.90
2018-09-22T00:33:59.628Z,11.80
2018-09-22T00:36:27.846Z,11.80
2018-09-22T00:38:56.042Z,11.80
2018-09-22T00:41:24.348Z,11.70
2018-09-22T00:43:52.550Z,11.70
2018-09-22T00:46:20.734Z,11.60
2018-09-22T00:48:48.957Z,11.60
2018-09-22T00:51:17.137Z,11.60
2018-09-22T00:53:45.297Z,11.60
2018-09-22T00:56:13.480Z,11.50
2018-09-22T00:58:41.667Z,11.50
2018-09-22T01:01:09.849Z,11.50
2018-09-22T01:03:38.005Z,11.40
2018-09-22T01:06:06.189Z,11.50
2018-09-22T01:08:34.411Z,11.40
2018-09-22T01:11:02.594Z,11.40
2018-09-22T01:13:30.858Z,11.40
2018-09-22T01:15:59.092Z,11.40
2018-09-22T01:18:27.221Z,11.40
2018-09-22T01:20:55.402Z,11.40
2018-09-22T01:23:23.574Z,11.40
2018-09-22T01:25:51.766Z,11.40
2018-09-22T01:28:19.963Z,11.30
2018-09-22T01:30:48.150Z,11.30
2018-09-22T01:33:16.334Z,11.20
2018-09-22T01:35:44.531Z,11.20
2018-09-22T01:38:12.709Z,11.20
2018-09-22T01:40:40.917Z,11.20
2018-09-22T01:43:09.106Z,11.10
2018-09-22T01:45:37.328Z,11.10
2018-09-22T01:48:05.549Z,11.00
2018-09-22T01:50:33.756Z,10.90
2018-09-22T01:53:01.962Z,10.90
2018-09-22T01:55:30.157Z,10.90
2018-09-22T01:57:58.355Z,11.00
2018-09-22T02:00:26.530Z,10.90
2018-09-22T02:02:54.713Z,10.90
2018-09-22T02:05:22.921Z,10.90
2018-09-22T02:07:51.541Z,10.80
2018-09-22T02:10:19.734Z,10.80
2018-09-22T02:12:47.942Z,10.80
2018-09-22T02:15:16.158Z,10.80
2018-09-22T02:17:44.333Z,10.70
2018-09-22T02:20:12.553Z,10.70
2018-09-22T02:22:40.738Z,10.60
2018-09-22T02:25:08.957Z,10.60
2018-09-22T02:27:37.154Z,10.60
2018-09-22T02:30:05.420Z,10.60
2018-09-22T02:32:33.613Z,10.60
2018-09-22T02:35:01.814Z,10.50
2018-09-22T02:37:30.001Z,10.50
2018-09-22T02:39:58.198Z,10.50
2018-09-22T02:42:26.397Z,10.40
2018-09-22T02:44:54.596Z,10.40
2018-09-22T02:47:22.819Z,10.40
2018-09-22T02:49:50.998Z,10.40
2018-09-22T02:52:19.214Z,10.40
2018-09-22T02:54:47.406Z,10.40
2018-09-22T02:57:15.594Z,10.30
2018-09-22T02:59:43.775Z,10.30
2018-09-22T03:02:12.302Z,10.30
2018-09-22T03:04:40.501Z,10.30
2018-09-22T03:07:08.676Z,10.30
2018-09-22T03:09:36.885Z,10.20
2018-09-22T03:12:05.063Z,10.30
2018-09-22T03:14:33.247Z,10.20
2018-09-22T03:17:01.437Z,10.20
2018-09-22T03:19:29.615Z,10.20
2018-09-22T03:21:57.810Z,10.20
2018-09-22T03:24:25.998Z,10.30
2018-09-22T03:26:54.291Z,10.30
2018-09-22T03:29:22.603Z,10.30
2018-09-22T03:31:50.803Z,10.20
2018-09-22T03:34:18.985Z,10.20
2018-09-22T03:36:47.191Z,10.20
2018-09-22T03:39:15.415Z,10.20
2018-09-22T03:41:43.606Z,10.20
2018-09-22T03:44:11.882Z,10.30
2018-09-22T03:46:40.083Z,10.20
2018-09-22T03:49:08.299Z,10.20
2018-09-22T03:51:36.514Z,10.20
2018-09-22T03:54:04.749Z,10.30
2018-09-22T03:56:33.157Z,10.30
2018-09-22T03:59:01.334Z,10.30
2018-09-22T04:01:29.539Z,10.30
2018-09-22T04:03:57.749Z,10.20
2018-09-22T04:06:25.970Z,10.20
2018-09-22T04:08:54.167Z,10.20
2018-09-22T04:11:22.357Z,10.20
2018-09-22T04:13:50.541Z,10.20
2018-09-22T04:16:18.730Z,10.30
2018-09-22T04:18:46.924Z,10.20
2018-09-22T04:21:15.139Z,10.20
2018-09-22T04:23:43.351Z,10.20
2018-09-22T04:26:11.526Z,10.20
2018-09-22T04:28:39.715Z,10.20
2018-09-22T04:31:07.900Z,10.20
2018-09-22T04:33:36.100Z,10.10
2018-09-22T04:36:04.304Z,10.20
2018-09-22T04:38:32.486Z,10.20
2018-09-22T04:41:00.682Z,10.20
2018-09-22T04:43:28.865Z,10.20
2018-09-22T04:45:57.157Z,10.20
2018-09-22T04:48:25.330Z,10.20
2018-09-22T04:50:53.518Z,10.20
2018-09-22T04:53:21.709Z,10.20
2018-09-22T04:55:49.930Z,10.20
2018-09-22T04:58:18.117Z,10.20
2018-09-22T05:00:46.314Z,10.30
2018-09-22T05:03:14.504Z,10.20
2018-09-22T05:05:42.727Z,10.20
2018-09-22T05:08:10.901Z,10.20
2018-09-22T05:10:39.085Z,10.20
2018-09-22T05:13:07.281Z,10.10
2018-09-22T05:15:35.468Z,10.20
2018-09-22T05:18:03.682Z,10.10
2018-09-22T05:20:31.890Z,10.10
2018-09-22T05:23:00.069Z,10.10
2018-09-22T05:25:28.253Z,10.10
2018-09-22T05:27:56.431Z,10.10
2018-09-22T05:30:24.618Z,10.10
2018-09-22T05:32:52.818Z,10.10
2018-09-22T05:35:20.997Z,10.10
2018-09-22T05:37:49.198Z,10.10
2018-09-22T05:40:17.390Z,10.20
2018-09-22T05:42:45.590Z,10.20
2018-09-22T05:45:13.798Z,10.20
2018-09-22T05:47:41.993Z,10.20
2018-09-22T05:50:10.245Z,10.30
2018-09-22T05:52:38.473Z,10.30
2018-09-22T05:55:06.661Z,10.40
2018-09-22T05:57:34.857Z,10.40
2018-09-22T06:00:03.069Z,10.40
2018-09-22T06:02:31.285Z,10.40
2018-09-22T06:04:59.462Z,10.40
2018-09-22T06:07:27.681Z,10.40
2018-09-22T06:09:55.882Z,10.40
2018-09-22T06:12:24.093Z,10.40
2018-09-22T06:14:52.289Z,10.40
2018-09-22T06:17:20.506Z,10.40
2018-09-22T06:19:48.811Z,10.50
2018-09-22T06:22:17.039Z,10.50
2018-09-22T06:24:45.322Z,10.50
2018-09-22T06:27:13.504Z,10.60
2018-09-22T06:29:41.677Z,10.70
2018-09-22T06:32:09.890Z,10.90
2018-09-22T06:34:38.052Z,11.00
2018-09-22T06:37:06.275Z,11.20
2018-09-22T06:39:34.465Z,11.40
2018-09-22T06:42:02.663Z,11.70
2018-09-22T06:44:30.926Z,11.90
2018-09-22T06:46:59.183Z,12.00
2018-09-22T06:49:27.389Z,12.10
2018-09-22T06:51:55.570Z,12.00
2018-09-22T06:54:23.776Z,11.90
2018-09-22T06:56:52.051Z,11.90
2018-09-22T06:59:20.222Z,11.90
2018-09-22T07:01:48.402Z,12.00
2018-09-22T07:04:16.569Z,12.10
2018-09-22T07:06:44.746Z,12.10
2018-09-22T07:09:12.920Z,12.20
2018-09-22T07:11:41.119Z,12.20
2018-09-22T07:14:09.324Z,12.40
2018-09-22T07:16:37.584Z,12.40
2018-09-22T07:19:05.904Z,12.10
2018-09-22T07:21:39.511Z,12.30
2018-09-22T07:27:10.572Z,12.60
2018-09-22T07:29:38.901Z,12.80
2018-09-22T07:32:07.442Z,12.80
2018-09-22T07:34:35.923Z,13.00
2018-09-22T07:37:04.431Z,13.00
2018-09-22T07:39:32.843Z,13.00
2018-09-22T07:42:01.304Z,13.00
2018-09-22T07:44:29.687Z,13.20
2018-09-22T07:46:58.078Z,13.30
2018-09-22T07:49:26.447Z,13.60
2018-09-22T07:51:54.899Z,13.80
2018-09-22T07:54:23.242Z,13.70
2018-09-22T07:56:51.603Z,13.50
2018-09-22T07:59:20.014Z,13.50
2018-09-22T08:01:48.384Z,13.40
2018-09-22T08:04:16.771Z,13.60
2018-09-22T08:06:45.107Z,13.90
2018-09-22T08:09:13.490Z,13.80
2018-09-22T08:11:41.834Z,14.10
2018-09-22T08:14:10.220Z,14.20
2018-09-22T08:16:38.622Z,14.10
2018-09-22T08:19:07.053Z,14.30
2018-09-22T08:21:35.396Z,14.20
2018-09-22T08:24:03.750Z,14.20
2018-09-22T08:26:32.162Z,14.40
2018-09-22T08:29:00.465Z,14.50
2018-09-22T08:31:28.824Z,14.60
2018-09-22T08:33:57.149Z,14.70
2018-09-22T08:36:25.782Z,14.90
2018-09-22T08:38:53.906Z,15.00
2018-09-22T08:41:22.244Z,14.80
2018-09-22T08:43:50.637Z,14.40
2018-09-22T08:46:19.026Z,14.80
2018-09-22T08:48:47.440Z,15.10
2018-09-22T08:51:15.874Z,15.60
2018-09-22T08:53:44.134Z,15.30
2018-09-22T08:56:12.554Z,15.50
2018-09-22T08:58:40.854Z,15.10
2018-09-22T09:01:09.185Z,15.00
2018-09-22T09:03:37.542Z,15.50
2018-09-22T09:06:05.835Z,15.70
2018-09-22T09:08:34.148Z,16.00
2018-09-22T09:11:02.493Z,16.00
2018-09-22T09:13:30.867Z,16.30
2018-09-22T09:15:59.223Z,16.20
2018-09-22T09:18:27.642Z,16.20
2018-09-22T09:20:56.098Z,16.00
2018-09-22T09:23:24.504Z,16.20
2018-09-22T09:25:52.828Z,16.10
2018-09-22T09:28:21.187Z,16.60
2018-09-22T09:30:49.746Z,16.20
2018-09-22T09:33:18.118Z,16.40
2018-09-22T09:35:46.566Z,16.20
2018-09-22T09:38:14.954Z,16.40
2018-09-22T09:40:43.278Z,16.80
2018-09-22T09:43:11.730Z,17.10
2018-09-22T09:45:40.084Z,17.70
2018-09-22T09:48:08.480Z,18.10
2018-09-22T09:50:36.854Z,18.10
2018-09-22T09:53:05.478Z,18.30
2018-09-22T09:55:33.815Z,18.80
2018-09-22T09:58:02.102Z,18.80
2018-09-22T10:00:35.715Z,18.40
2018-09-22T10:03:04.177Z,18.20
2018-09-22T10:05:32.538Z,18.50
2018-09-22T10:08:00.840Z,19.40
2018-09-22T10:10:29.142Z,20.20
2018-09-22T10:12:57.474Z,20.80
2018-09-22T10:15:25.855Z,21.20
2018-09-22T10:17:54.264Z,21.30
2018-09-22T10:20:22.687Z,21.60
2018-09-22T10:22:51.109Z,22.10
2018-09-22T10:25:19.427Z,21.30
2018-09-22T10:27:47.778Z,21.60
2018-09-22T10:30:16.242Z,22.50
2018-09-22T10:32:44.579Z,22.60
2018-09-22T10:35:12.875Z,21.40
2018-09-22T10:37:41.205Z,20.20
2018-09-22T10:40:09.522Z,19.70
2018-09-22T10:42:37.934Z,18.10
2018-09-22T10:45:06.519Z,18.30
2018-09-22T10:47:34.874Z,18.80
2018-09-22T10:50:03.275Z,18.20
2018-09-22T10:52:31.697Z,17.50
2018-09-22T10:55:00.031Z,17.60
2018-09-22T10:57:28.458Z,17.10
2018-09-22T10:59:56.822Z,17.30
2018-09-22T11:02:25.249Z,17.30
2018-09-22T11:04:53.625Z,19.00
2018-09-22T11:07:21.875Z,20.70
2018-09-22T11:09:50.246Z,21.80
2018-09-22T11:12:18.600Z,20.50
2018-09-22T11:14:47.028Z,21.30
2018-09-22T11:17:15.362Z,22.10
2018-09-22T11:19:43.725Z,22.20
2018-09-22T11:22:12.105Z,21.90
2018-09-22T11:24:40.432Z,21.00
2018-09-22T11:27:08.746Z,20.70
2018-09-22T11:29:37.063Z,20.70
2018-09-22T11:32:05.436Z,19.70
2018-09-22T11:34:33.896Z,19.60
2018-09-22T11:37:02.265Z,21.20
2018-09-22T11:39:30.748Z,21.30
2018-09-22T11:41:59.184Z,19.50
2018-09-22T11:44:27.546Z,19.60
2018-09-22T11:46:55.921Z,20.50
2018-09-22T11:49:24.327Z,21.30
2018-09-22T11:51:52.742Z,22.70
2018-09-22T11:54:21.150Z,23.30
2018-09-22T11:56:49.615Z,22.80
2018-09-22T11:59:18.254Z,21.80
2018-09-22T12:01:46.610Z,22.20
2018-09-22T12:04:14.942Z,22.20
2018-09-22T12:06:43.457Z,23.00
2018-09-22T12:09:12.222Z,24.00
2018-09-22T12:11:41.038Z,24.50
2018-09-22T12:14:09.790Z,24.90
2018-09-22T12:16:38.042Z,25.00
2018-09-22T12:19:06.414Z,24.10
2018-09-22T12:21:34.718Z,23.60
2018-09-22T12:24:03.100Z,22.50
2018-09-22T12:26:31.492Z,20.50
2018-09-22T12:28:59.883Z,20.70
2018-09-22T12:31:28.220Z,20.60
2018-09-22T12:33:56.534Z,19.10
2018-09-22T12:36:24.899Z,19.50
2018-09-22T12:38:53.271Z,19.50
2018-09-22T12:41:21.670Z,19.60
2018-09-22T12:43:50.022Z,20.60
2018-09-22T12:46:18.442Z,21.00
2018-09-22T12:48:46.798Z,20.40
2018-09-22T12:51:15.183Z,21.80
2018-09-22T12:53:43.542Z,22.50
2018-09-22T12:56:11.850Z,22.90
2018-09-22T12:58:40.130Z,22.50
2018-09-22T13:01:08.573Z,21.10
2018-09-22T13:03:36.990Z,20.30
2018-09-22T13:06:05.518Z,20.30
2018-09-22T13:08:33.866Z,19.70
2018-09-22T13:11:02.143Z,19.50
2018-09-22T13:13:30.484Z,19.60
2018-09-22T13:15:58.850Z,20.00
2018-09-22T13:18:27.267Z,18.90
2018-09-22T13:20:55.618Z,19.60
2018-09-22T13:23:24.051Z,19.60
2018-09-22T13:25:52.374Z,19.50
2018-09-22T13:28:20.694Z,19.10
2018-09-22T13:30:49.018Z,18.30
2018-09-22T13:33:17.417Z,19.00
2018-09-22T13:35:45.770Z,19.30
2018-09-22T13:38:14.138Z,19.40
2018-09-22T13:40:42.494Z,19.70
2018-09-22T13:43:10.866Z,20.10
2018-09-22T13:45:39.186Z,19.50
2018-09-22T13:48:07.711Z,18.50
2018-09-22T13:50:36.238Z,17.80
2018-09-22T13:53:04.572Z,18.20
2018-09-22T13:55:32.958Z,17.90
2018-09-22T13:58:01.322Z,17.90
2018-09-22T14:00:29.746Z,18.10
2018-09-22T14:02:58.143Z,18.00
2018-09-22T14:05:26.558Z,18.00
2018-09-22T14:07:54.887Z,18.20
2018-09-22T14:10:23.185Z,18.50
2018-09-22T14:12:51.520Z,18.50
2018-09-22T14:15:19.818Z,18.50
2018-09-22T14:17:48.184Z,18.60
2018-09-22T14:20:16.602Z,18.70
2018-09-22T14:22:45.062Z,18.40
2018-09-22T14:25:13.486Z,18.30
2018-09-22T14:27:41.845Z,18.30
2018-09-22T14:30:10.117Z,18.30
2018-09-22T14:32:38.543Z,18.40
2018-09-22T14:35:06.944Z,18.50
2018-09-22T14:37:35.273Z,18.30
2018-09-22T14:40:03.674Z,18.20
2018-09-22T14:42:32.082Z,18.20
2018-09-22T14:45:00.417Z,18.00
2018-09-22T14:47:28.789Z,17.70
2018-09-22T14:49:57.201Z,17.30
2018-09-22T14:52:25.569Z,17.50
2018-09-22T14:54:53.926Z,17.40
2018-09-22T14:57:22.300Z,17.30
2018-09-22T14:59:50.697Z,17.20
2018-09-22T15:02:19.098Z,17.20
2018-09-22T15:04:47.604Z,16.90
2018-09-22T15:07:15.894Z,17.00
2018-09-22T15:09:44.251Z,17.00
2018-09-22T15:12:12.571Z,17.10
2018-09-22T15:14:40.943Z,16.90
2018-09-22T15:17:09.344Z,17.10
2018-09-22T15:19:37.838Z,17.20
2018-09-22T15:22:06.546Z,17.30
2018-09-22T15:24:34.942Z,17.20
2018-09-22T15:27:03.274Z,17.20
2018-09-22T15:29:31.702Z,17.20
2018-09-22T15:32:00.099Z,17.20
2018-09-22T15:34:28.460Z,17.10
2018-09-22T15:36:56.907Z,17.10
2018-09-22T15:39:25.199Z,17.10
2018-09-22T15:41:53.530Z,17.20
2018-09-22T15:44:21.894Z,16.90
2018-09-22T15:46:50.278Z,16.70
2018-09-22T15:49:18.715Z,16.80
2018-09-22T15:51:47.127Z,16.90
2018-09-22T15:54:15.518Z,17.00
2018-09-22T15:56:43.853Z,16.90
2018-09-22T15:59:12.253Z,17.00
2018-09-22T16:01:40.648Z,16.90
2018-09-22T16:04:09.154Z,16.90
2018-09-22T16:06:37.462Z,16.90
2018-09-22T16:09:08.057Z,16.90
2018-09-22T16:11:36.312Z,16.90
2018-09-22T16:14:04.646Z,16.90
2018-09-22T16:16:32.982Z,16.90
2018-09-22T16:19:01.523Z,16.80
2018-09-22T16:21:29.882Z,16.70
2018-09-22T16:23:58.304Z,16.60
2018-09-22T16:26:26.685Z,16.60
2018-09-22T16:28:55.145Z,16.60
2018-09-22T16:31:23.591Z,16.60
2018-09-22T16:33:51.923Z,16.50
2018-09-22T16:36:20.560Z,16.60
2018-09-22T16:38:49.062Z,16.60
2018-09-22T16:41:17.432Z,16.50
2018-09-22T16:43:45.789Z,16.50
2018-09-22T16:46:14.146Z,16.40
2018-09-22T16:48:42.539Z,16.30
2018-09-22T16:51:10.962Z,16.30
2018-09-22T16:53:39.354Z,16.30
2018-09-22T16:56:07.788Z,16.30
2018-09-22T16:58:36.321Z,16.30
2018-09-22T17:01:04.736Z,16.30
2018-09-22T17:03:33.025Z,16.30
2018-09-22T17:06:01.366Z,16.10
2018-09-22T17:08:29.754Z,15.90
2018-09-22T17:10:58.190Z,15.90
2018-09-22T17:13:26.503Z,15.90
2018-09-22T17:15:54.875Z,15.60
2018-09-22T17:18:23.309Z,15.50
2018-09-22T17:20:51.763Z,15.50
2018-09-22T17:23:20.130Z,15.40
2018-09-22T17:25:48.515Z,15.00
2018-09-22T17:28:16.942Z,14.70
2018-09-22T17:30:45.242Z,14.80
2018-09-22T17:33:13.642Z,14.40
2018-09-22T17:35:42.018Z,14.60
2018-09-22T17:38:10.348Z,14.70
2018-09-22T17:40:38.634Z,14.20
2018-09-22T17:43:07.149Z,14.50
2018-09-22T17:45:35.401Z,14.30
2018-09-22T17:48:03.687Z,14.70
2018-09-22T17:50:32.030Z,14.90
2018-09-22T17:53:00.334Z,15.00
2018-09-22T17:55:28.704Z,14.60
2018-09-22T17:57:56.998Z,14.60
2018-09-22T18:00:25.294Z,14.20
2018-09-22T18:02:53.602Z,14.10
2018-09-22T18:05:21.951Z,14.00
2018-09-22T18:07:50.286Z,13.70
2018-09-22T18:10:18.586Z,13.40
2018-09-22T18:12:46.891Z,13.10
2018-09-22T18:15:15.258Z,13.00
2018-09-22T18:17:43.598Z,13.00
2018-09-22T18:20:11.982Z,13.20
2018-09-22T18:22:40.322Z,13.00
2018-09-22T18:25:08.668Z,12.90
2018-09-22T18:27:37.030Z,12.80
2018-09-22T18:30:05.498Z,12.80
2018-09-22T18:32:33.818Z,12.90
2018-09-22T18:35:02.187Z,12.90
2018-09-22T18:37:30.551Z,12.60
2018-09-22T18:39:58.888Z,12.70
2018-09-22T18:42:27.374Z,12.80
2018-09-22T18:44:55.735Z,12.70
2018-09-22T18:47:24.177Z,12.60
2018-09-22T18:49:52.513Z,12.70
2018-09-22T18:52:20.866Z,13.00
2018-09-22T18:54:49.220Z,13.00
2018-09-22T18:57:17.543Z,12.90
2018-09-22T18:59:45.823Z,12.60
2018-09-22T19:02:14.284Z,12.30
2018-09-22T19:04:42.606Z,12.60
2018-09-22T19:07:10.918Z,12.40
2018-09-22T19:09:39.250Z,12.40
2018-09-22T19:12:07.554Z,12.30
2018-09-22T19:14:41.293Z,12.10
2018-09-22T19:17:20.406Z,12.10
2018-09-22T19:19:59.105Z,12.10
2018-09-22T19:22:30.698Z,12.10
2018-09-22T19:25:07.322Z,12.00
2018-09-22T19:27:39.822Z,12.20
2018-09-22T19:30:13.307Z,12.10
2018-09-22T19:32:47.913Z,12.00
2018-09-22T19:35:19.386Z,11.90
2018-09-22T19:37:51.069Z,11.80
2018-09-22T19:40:24.225Z,12.00
2018-09-22T19:42:55.997Z,12.20
2018-09-22T19:45:30.717Z,12.30
2018-09-22T19:49:02.472Z,12.20
2018-09-22T19:51:34.967Z,12.20
2018-09-22T19:54:04.070Z,12.00
2018-09-22T19:56:32.254Z,12.00
2018-09-22T19:59:00.476Z,12.00
2018-09-22T20:01:28.701Z,11.80
2018-09-22T20:03:56.903Z,11.80
2018-09-22T20:06:25.127Z,11.90
2018-09-22T20:08:53.349Z,11.90
2018-09-22T20:11:21.526Z,12.00
2018-09-22T20:13:49.722Z,11.90
2018-09-22T20:16:17.962Z,11.80
2018-09-22T20:18:46.145Z,11.80
2018-09-22T20:21:14.330Z,12.10
2018-09-22T20:23:42.530Z,12.40
2018-09-22T20:26:10.709Z,12.60
2018-09-22T20:28:38.918Z,12.00
2018-09-22T20:31:07.101Z,11.80
2018-09-22T20:33:35.293Z,11.80
2018-09-22T20:36:03.530Z,11.90
2018-09-22T20:38:31.705Z,11.90
2018-09-22T20:40:59.917Z,11.80
2018-09-22T20:43:28.093Z,12.00
2018-09-22T20:45:56.302Z,12.40
2018-09-22T20:48:24.634Z,12.30
2018-09-22T20:50:52.830Z,12.10
2018-09-22T20:53:21.028Z,12.00
2018-09-22T20:55:49.201Z,11.90
2018-09-22T20:58:17.422Z,12.00
2018-09-22T21:00:45.621Z,12.10
2018-09-22T21:03:13.872Z,11.90
2018-09-22T21:05:42.077Z,11.70
2018-09-22T21:08:10.245Z,11.50
2018-09-22T21:10:38.446Z,11.60
2018-09-22T21:13:06.634Z,11.50
2018-09-22T21:15:34.842Z,11.50
2018-09-22T21:18:03.026Z,11.50
2018-09-22T21:20:31.207Z,11.80
2018-09-22T21:22:59.385Z,11.70
2018-09-22T21:25:27.597Z,11.70
2018-09-22T21:27:55.829Z,11.70
2018-09-22T21:30:24.025Z,11.80
2018-09-22T21:32:52.238Z,11.80
2018-09-22T21:35:20.422Z,11.70
2018-09-22T21:37:48.609Z,11.50
2018-09-22T21:40:16.808Z,11.50
2018-09-22T21:42:45.028Z,11.50
2018-09-22T21:45:13.206Z,11.40
2018-09-22T21:47:41.394Z,11.60
2018-09-22T21:50:09.586Z,11.80
2018-09-22T21:52:37.766Z,11.50
2018-09-22T21:55:05.954Z,11.40
2018-09-22T21:57:34.225Z,11.40
2018-09-22T22:00:02.437Z,11.40
2018-09-22T22:02:30.665Z,11.60
2018-09-22T22:04:58.880Z,11.70
2018-09-22T22:07:27.054Z,12.10
2018-09-22T22:09:55.238Z,12.10
2018-09-22T22:12:23.409Z,11.80
2018-09-22T22:14:51.594Z,11.60
2018-09-22T22:17:19.762Z,11.60
2018-09-22T22:19:47.945Z,11.50
2018-09-22T22:22:16.118Z,11.40
2018-09-22T22:24:44.321Z,11.50
2018-09-22T22:27:12.533Z,11.50
2018-09-22T22:29:40.762Z,11.50
2018-09-22T22:32:08.961Z,11.50
2018-09-22T22:34:37.166Z,11.40
2018-09-22T22:37:05.366Z,11.50
2018-09-22T22:39:33.564Z,11.60
2018-09-22T22:42:01.762Z,11.70
2018-09-22T22:44:30.030Z,11.80
2018-09-22T22:46:58.167Z,11.60
2018-09-22T22:49:26.358Z,11.80
2018-09-22T22:51:54.668Z,12.00
2018-09-22T22:54:22.854Z,12.30
2018-09-22T22:56:51.019Z,12.30
2018-09-22T22:59:19.217Z,12.20
2018-09-22T23:01:47.403Z,12.20
2018-09-22T23:04:15.607Z,12.30
2018-09-22T23:06:43.790Z,12.40
2018-09-22T23:09:11.993Z,12.30
2018-09-22T23:11:40.183Z,12.30
2018-09-22T23:14:08.382Z,12.20
2018-09-22T23:16:37.401Z,12.30
2018-09-22T23:19:05.746Z,12.20
2018-09-22T23:21:33.925Z,12.10
2018-09-22T23:24:02.109Z,12.20
2018-09-22T23:26:30.306Z,12.20
2018-09-22T23:28:58.522Z,12.30
2018-09-22T23:31:26.710Z,12.40
2018-09-22T23:33:54.906Z,12.50
2018-09-22T23:36:23.097Z,12.50
2018-09-22T23:38:51.277Z,12.50
2018-09-22T23:41:19.466Z,12.60
2018-09-22T23:43:47.650Z,12.60
2018-09-22T23:46:15.845Z,12.60
2018-09-22T23:48:44.192Z,12.60
2018-09-22T23:51:12.396Z,12.50
2018-09-22T23:53:40.578Z,12.50
2018-09-22T23:56:08.775Z,12.50
2018-09-22T23:58:36.978Z,12.50
